This is the latest recevied weather packets stored in our database for station/object WB5CFT. If no packets are shown the sender has not sent any weather packets the latest 1 day(s).
| Time | Temp. | Humidity | Pressure | Rain* | Wind** | Luminosity | Snow |
|---|---|---|---|---|---|---|---|
| 1778070970 | 14.44° C | 56% | 1014.8 hPa | 0 mm | - | 13 W/m² | - |
| 1778068549 | 17.78° C | 42% | 1014.3 hPa | 0 mm | - | 0 W/m² | - |
| 1778067643 | 18.89° C | 36% | 1014 hPa | 0 mm | - | 0 W/m² | - |
| 1778066734 | 16.67° C | 41% | 1014 hPa | 0 mm | - | 0 W/m² | - |
| 1778065524 | 17.78° C | 38% | 1013.6 hPa | 0 mm | - | 0 W/m² | - |
| 1778064917 | 19.44° C | 32% | 1013.3 hPa | 0 mm | - | 0 W/m² | - |
| 1778062799 | 20° C | 28% | 1012.8 hPa | 0 mm | - | 0 W/m² | - |
| 1778062495 | 20.56° C | 31% | 1012.8 hPa | 0 mm | - | 0 W/m² | - |
| 1778061891 | 20° C | 30% | 1012.7 hPa | 0 mm | - | 0 W/m² | - |
| 1778060077 | 18.89° C | 35% | 1012.3 hPa | 0 mm | - | 0 W/m² | - |
| 1778059774 | 18.89° C | 39% | 1012.4 hPa | 0 mm | - | 0 W/m² | - |
| 1778059472 | 18.33° C | 44% | 1012.5 hPa | 0 mm | - | 0 W/m² | - |
| 1778058563 | 17.78° C | 41% | 1011.9 hPa | 0 mm | - | 0 W/m² | - |
| 1778058261 | 17.78° C | 46% | 1012.2 hPa | 0 mm | - | 0 W/m² | - |
| 1778057654 | 18.33° C | 45% | 1012.1 hPa | 0 mm | - | 0 W/m² | - |
| 1778055835 | 18.33° C | 45% | 1012.1 hPa | 0 mm | - | 0 W/m² | - |
| 1778055531 | 19.44° C | 42% | 1012.1 hPa | 0 mm | - | 0 W/m² | - |
| 1778055229 | 20.56° C | 36% | 1012.1 hPa | 0 mm | - | 0 W/m² | - |
| 1778054623 | 21.11° C | 32% | 1011.8 hPa | 0 mm | - | 0 W/m² | - |
| 1778054321 | 21.67° C | 31% | 1011.8 hPa | 0 mm | - | 0 W/m² | - |
| 1778053715 | 21.11° C | 32% | 1011.9 hPa | 0 mm | - | 0 W/m² | - |
| 1778053412 | 21.67° C | 34% | 1011.6 hPa | 0 mm | - | 0 W/m² | - |
| 1778053110 | 21.67° C | 31% | 1011.7 hPa | 0 mm | - | 0 W/m² | - |
| 1778052807 | 21.67° C | 31% | 1011.8 hPa | 0 mm | - | 0 W/m² | - |
| 1778052504 | 21.67° C | 32% | 1011.7 hPa | 0 mm | - | 0 W/m² | - |
* Rain latest hour (hover to see other rain measurements)
** Current wind speed in m/s (hover to see current wind gust speed)